This is the latest recevied weather packets stored in our database for station/object VA7SHG-1. If no packets are shown the sender has not sent any weather packets the latest 10 day(s).
| Time | Temp. | Humidity | Pressure | Rain* | Wind** | Luminosity | Snow |
|---|---|---|---|---|---|---|---|
| 1777770327 | 26.67° C | 41% | 1013.7 hPa | 0 mm | - | 266 W/m² | - |
| 1777769128 | 27.22° C | 40% | 1013.7 hPa | 0 mm | - | 326 W/m² | - |
| 1777764920 | 27.78° C | 33% | 1014 hPa | 0 mm | - | 533 W/m² | - |
| 1777764347 | 28.33° C | 32% | 1014.1 hPa | 0 mm | - | 560 W/m² | - |
| 1777762556 | 27.78° C | 30% | 1014.3 hPa | 0 mm | - | 653 W/m² | - |
| 1777754139 | 27.22° C | 36% | 1016.1 hPa | 0 mm | - | 940 W/m² | - |
| 1777753543 | 26.67° C | 33% | 1016.2 hPa | 0 mm | - | 945 W/m² | - |
| 1777751149 | 26.11° C | 32% | 1016.6 hPa | 0 mm | - | 948 W/m² | - |
| 1777749321 | 23.89° C | 35% | 1017 hPa | 0 mm | - | 932 W/m² | - |
| 1777748120 | 23.89° C | 39% | 1017.2 hPa | 0 mm | - | 913 W/m² | - |
| 1777747529 | 22.78° C | 43% | 1017.3 hPa | 0 mm | - | 898 W/m² | - |
| 1777743927 | 17.78° C | 61% | 1018.2 hPa | 0 mm | - | 468 W/m² | - |
| 1777739761 | 17.22° C | 55% | 1018.6 hPa | 0 mm | - | 271 W/m² | - |
| 1777737927 | 16.11° C | 63% | 1018.8 hPa | 0 mm | - | 184 W/m² | - |
| 1777735543 | 15° C | 71% | 1018.7 hPa | 0 mm | - | 152 W/m² | - |
| 1777730728 | 13.33° C | 73% | 1018.4 hPa | 0 mm | - | 121 W/m² | - |
| 1777727721 | 11.67° C | 76% | 1017.7 hPa | 0 mm | - | 18 W/m² | - |
| 1777725321 | 12.22° C | 74% | 1017.4 hPa | 0 mm | - | 1 W/m² | - |
| 1777722940 | 12.78° C | 73% | 1017.4 hPa | 0 mm | - | 0 W/m² | - |
| 1777719928 | 12.78° C | 76% | 1017.2 hPa | 0 mm | - | 0 W/m² | - |
| 1777713320 | 13.89° C | 79% | 1017 hPa | 0 mm | - | 0 W/m² | - |
| 1777712141 | 13.89° C | 79% | 1017.1 hPa | 0 mm | - | 0 W/m² | - |
| 1777709721 | 14.44° C | 78% | 1017 hPa | 0 mm | - | 0 W/m² | - |
| 1777701321 | 16.11° C | 68% | 1016.4 hPa | 0 mm | - | 0 W/m² | - |
| 1777700728 | 16.67° C | 65% | 1016.2 hPa | 0 mm | - | 0 W/m² | - |
* Rain latest hour (hover to see other rain measurements)
** Current wind speed in m/s (hover to see current wind gust speed)